Accueil
METAR-TAF:

METAR-TAF

Aéroports :

Bergerac, France

Aéroport de Bergerac-Dordogne-Périgord

latitude: 44-49N, longitude: 000-31E, altitude: 51 m

Observation

Le bulletin a été fait il y a 35 minutes, à 22:30 UTC
Vent 1 kt de nord-est
Température 7°C
Humidité 81%
Pression 1011 hPa
Visibilité 10 km ou plus
pas de nuages en-dessous de 1500 mètres et pas de cumulonimbus.

METAR: LFBE 242230Z AUTO 04001KT CAVOK 07/04 Q1011

Heure: 01:05 (23:05 UTC)

Prévision

Le bulletin a été fait il y a 12 heures et 5 minutes, à 11:00 UTC
Prévision valable du 24 à 12 UTC au 25 à 12 UTC
Vent 6 kt de ouest
Visibilité 10 km ou plus
pas de nuages en-dessous de 1500 mètres et pas de cumulonimbus.
Probabilité 30% :
Temporairement
du 25 à 07 UTC au 25 à 12 UTC
Nuages fragmentés à une hauteur de 6000 ft
pluie faible

TAF: LFBE 241100Z 2412/2512 27006KT CAVOK PROB30 TEMPO 2507/2512 -RA BKN060

Observations et prévisions météorologiques de plus de 4000 aéroports (messages METAR et TAF).

Les stations disponibles sont représentées par des disques jaunes et rouges sur la carte.

Passer la souris dessus pour voir le nom de la station.

Cliquer dessus pour voir les observations et prévisions météorologiques.

Pour changer de carte: cliquez sur les boutons verts avec une croix noire pour zoomer, sur le bouton vert avec un tiret pour effectuer un zoom arrière, ou sur les flèches vertes pour les cartes adjacentes.


METAR-TAF: